Time;durP1;ratioP1;P1;durP2;ratioP2;P2;SDS_P1;SDS_P2;PMS_P1;PMS_P2;Temp;Humidity;BMP_temperature;BMP_pressure;BME280_temperature;BME280_humidity;BME280_pressure;Samples;Min_cycle;Max_cycle;Signal;HPM_P1;HPM_P2
2023/03/31 00:00:15;;;;;;;;;2.00;0.00;;;;;;;;5085143;28;10361;-91
2023/03/31 00:02:40;;;;;;;;;1.25;1.25;;;;;;;;5084872;28;8803;-91
2023/03/31 00:05:06;;;;;;;;;1.25;1.25;;;;;;;;5103169;28;8790;-93
2023/03/31 00:07:32;;;;;;;;;1.50;0.25;;;;;;;;5102724;28;8728;-91
2023/03/31 00:10:00;;;;;;;;;2.00;0.50;;;;;;;;5103343;28;10642;-92
2023/03/31 00:12:26;;;;;;;;;1.75;0.75;;;;;;;;5084451;28;8805;-91
2023/03/31 00:14:51;;;;;;;;;1.00;1.00;;;;;;;;5103221;28;10394;-91
2023/03/31 00:17:17;;;;;;;;;0.25;0.25;;;;;;;;5084876;28;8787;-90
2023/03/31 00:19:42;;;;;;;;;1.25;0.00;;;;;;;;5064273;28;9878;-93
2023/03/31 00:22:08;;;;;;;;;1.75;1.00;;;;;;;;5063781;28;8835;-90
2023/03/31 00:24:33;;;;;;;;;2.00;1.00;;;;;;;;5081881;28;8809;-89
2023/03/31 00:27:00;;;;;;;;;0.00;0.00;;;;;;;;5081337;28;8805;-90
2023/03/31 00:29:25;;;;;;;;;1.25;0.75;;;;;;;;5081843;28;8769;-92
2023/03/31 00:31:51;;;;;;;;;1.00;1.00;;;;;;;;5082865;28;10314;-94
2023/03/31 00:34:16;;;;;;;;;2.50;1.00;;;;;;;;5084082;28;8781;-92
2023/03/31 00:36:47;;;;;;;;;3.75;0.50;;;;;;;;5065540;28;8883;-92
2023/03/31 00:39:14;;;;;;;;;0.00;0.00;;;;;;;;5065494;28;9998;-93
2023/03/31 00:41:39;;;;;;;;;1.50;0.00;;;;;;;;5065222;28;10339;-93
2023/03/31 00:44:07;;;;;;;;;3.25;1.00;;;;;;;;5065653;28;10381;-91
2023/03/31 00:46:41;;;;;;;;;2.00;1.00;;;;;;;;5066295;28;8792;-90
2023/03/31 00:49:11;;;;;;;;;3.25;2.25;;;;;;;;5069115;28;10474;-90
2023/03/31 00:51:37;;;;;;;;;1.00;1.00;;;;;;;;5069007;28;10082;-92
2023/03/31 00:54:04;;;;;;;;;0.50;0.50;;;;;;;;5068556;28;10338;-93
2023/03/31 00:56:33;;;;;;;;;2.50;0.25;;;;;;;;5098066;28;10366;-93
2023/03/31 00:59:01;;;;;;;;;3.75;2.00;;;;;;;;5089622;28;10540;-94
2023/03/31 01:01:26;;;;;;;;;0.25;0.00;;;;;;;;5107557;28;10305;-91
2023/03/31 01:03:52;;;;;;;;;1.00;1.00;;;;;;;;5088592;28;10126;-93
2023/03/31 01:06:22;;;;;;;;;1.00;0.00;;;;;;;;5106362;28;8727;-92
2023/03/31 01:08:48;;;;;;;;;0.00;0.00;;;;;;;;5087559;28;10027;-92
2023/03/31 01:11:15;;;;;;;;;3.25;0.50;;;;;;;;5105142;28;10324;-91
2023/03/31 01:13:41;;;;;;;;;3.00;0.00;;;;;;;;5067915;28;10380;-92
2023/03/31 01:16:06;;;;;;;;;0.50;0.50;;;;;;;;5068589;28;10479;-92
2023/03/31 01:18:34;;;;;;;;;1.25;0.00;;;;;;;;5086871;28;8784;-90
2023/03/31 01:21:17;;;;;;;;;3.00;1.25;;;;;;;;5068734;28;9780;-93
2023/03/31 01:24:01;;;;;;;;;3.50;1.00;;;;;;;;5076564;28;10445;-93
2023/03/31 01:26:37;;;;;;;;;0.00;0.00;;;;;;;;5083085;28;10457;-92
2023/03/31 01:29:02;;;;;;;;;1.00;0.00;;;;;;;;5084258;28;10479;-94
2023/03/31 01:31:27;;;;;;;;;2.00;1.00;;;;;;;;5084179;28;10354;-93
2023/03/31 01:34:14;;;;;;;;;1.00;1.00;;;;;;;;5083374;28;8797;-92
2023/03/31 01:36:39;;;;;;;;;3.00;1.00;;;;;;;;5084080;28;8761;-94
2023/03/31 01:39:33;;;;;;;;;0.00;0.00;;;;;;;;5077299;28;10451;-93
2023/03/31 01:42:17;;;;;;;;;0.50;0.50;;;;;;;;5066038;28;8732;-93
2023/03/31 01:44:45;;;;;;;;;1.00;1.00;;;;;;;;5066113;28;10403;-94
2023/03/31 01:47:40;;;;;;;;;3.25;1.25;;;;;;;;5065523;28;10523;-93
2023/03/31 01:50:22;;;;;;;;;0.00;0.00;;;;;;;;4998335;28;10666;-93
2023/03/31 01:53:05;;;;;;;;;4.00;0.50;;;;;;;;5024346;28;10478;-93
2023/03/31 01:55:44;;;;;;;;;1.75;1.00;;;;;;;;5005862;28;10445;-93
2023/03/31 01:58:09;;;;;;;;;1.00;1.00;;;;;;;;5022803;28;10596;-93
2023/03/31 02:00:39;;;;;;;;;4.00;1.50;;;;;;;;4999183;28;10493;-93
2023/03/31 02:03:15;;;;;;;;;2.00;0.00;;;;;;;;4986933;28;8730;-93
2023/03/31 02:05:45;;;;;;;;;1.75;0.25;;;;;;;;4986544;28;10464;-92
2023/03/31 02:08:13;;;;;;;;;1.75;1.00;;;;;;;;5001992;28;10318;-90
2023/03/31 02:10:41;;;;;;;;;1.00;1.00;;;;;;;;5003791;28;10308;-95
2023/03/31 02:13:07;;;;;;;;;0.25;0.00;;;;;;;;4986112;28;10501;-94
2023/03/31 02:15:38;;;;;;;;;2.00;1.00;;;;;;;;4986770;28;10453;-94
2023/03/31 02:18:09;;;;;;;;;2.00;2.00;;;;;;;;5003360;28;10362;-93
2023/03/31 02:20:36;;;;;;;;;5.50;1.25;;;;;;;;5004131;28;10680;-93
2023/03/31 02:23:02;;;;;;;;;1.75;1.00;;;;;;;;4995346;28;10339;-93
2023/03/31 02:25:35;;;;;;;;;3.00;1.75;;;;;;;;5005243;28;10571;-92
2023/03/31 02:28:03;;;;;;;;;3.75;1.00;;;;;;;;5063184;28;8779;-92
2023/03/31 02:30:38;;;;;;;;;3.00;1.00;;;;;;;;5063399;28;10220;-93
2023/03/31 02:33:04;;;;;;;;;4.75;3.00;;;;;;;;5062775;28;10667;-93
2023/03/31 02:35:29;;;;;;;;;0.75;0.75;;;;;;;;5063856;28;10483;-92
2023/03/31 02:37:57;;;;;;;;;3.00;1.00;;;;;;;;5062211;28;8869;-92
2023/03/31 02:40:26;;;;;;;;;2.00;2.00;;;;;;;;5063728;28;8755;-92
2023/03/31 02:42:52;;;;;;;;;4.25;3.75;;;;;;;;5062940;28;10487;-93
2023/03/31 02:45:32;;;;;;;;;2.00;1.00;;;;;;;;5064279;28;10612;-93
2023/03/31 02:47:57;;;;;;;;;1.00;1.00;;;;;;;;5065290;28;8808;-94
2023/03/31 02:50:26;;;;;;;;;4.00;2.50;;;;;;;;5063013;28;10777;-93
2023/03/31 02:52:58;;;;;;;;;1.75;0.75;;;;;;;;5063876;28;8732;-93
2023/03/31 02:55:24;;;;;;;;;4.00;2.25;;;;;;;;5062231;28;10412;-93
2023/03/31 02:57:50;;;;;;;;;4.00;2.00;;;;;;;;5062744;28;10583;-92
2023/03/31 03:00:18;;;;;;;;;2.00;1.00;;;;;;;;5062179;28;10775;-93
2023/03/31 03:02:46;;;;;;;;;3.50;1.75;;;;;;;;5064099;28;8781;-92
2023/03/31 03:05:22;;;;;;;;;1.75;1.00;;;;;;;;5062849;28;10370;-92
2023/03/31 03:07:50;;;;;;;;;2.00;2.00;;;;;;;;5062881;28;10479;-91
2023/03/31 03:10:24;;;;;;;;;2.00;2.00;;;;;;;;5063233;28;10590;-92
2023/03/31 03:12:53;;;;;;;;;1.75;1.75;;;;;;;;5062638;28;10415;-92
2023/03/31 03:15:21;;;;;;;;;3.00;1.50;;;;;;;;5062152;28;10558;-92
2023/03/31 03:17:47;;;;;;;;;4.75;1.50;;;;;;;;5063755;28;10413;-92
2023/03/31 03:20:14;;;;;;;;;4.75;2.25;;;;;;;;5062007;28;10499;-91
2023/03/31 03:22:40;;;;;;;;;4.25;3.25;;;;;;;;5060024;28;8728;-94
2023/03/31 03:25:08;;;;;;;;;5.25;2.00;;;;;;;;5061610;28;10691;-92
2023/03/31 03:27:34;;;;;;;;;1.00;1.00;;;;;;;;5062623;28;8731;-93
2023/03/31 03:30:03;;;;;;;;;3.00;2.00;;;;;;;;5063536;28;10596;-94
2023/03/31 03:32:28;;;;;;;;;1.00;0.00;;;;;;;;5061933;28;10596;-88
2023/03/31 03:34:54;;;;;;;;;1.00;1.00;;;;;;;;5062105;28;10662;-90
2023/03/31 03:37:19;;;;;;;;;3.50;2.50;;;;;;;;5063932;28;8845;-92
2023/03/31 03:39:45;;;;;;;;;3.75;1.25;;;;;;;;5064399;28;8775;-93
2023/03/31 03:42:10;;;;;;;;;4.00;2.00;;;;;;;;5064375;28;8802;-92
2023/03/31 03:44:35;;;;;;;;;5.00;2.00;;;;;;;;5063231;28;8810;-93
2023/03/31 03:47:00;;;;;;;;;8.00;1.25;;;;;;;;5063397;28;8830;-91
2023/03/31 03:49:26;;;;;;;;;2.50;2.50;;;;;;;;5064302;28;8775;-92
2023/03/31 03:51:51;;;;;;;;;6.50;3.00;;;;;;;;5064012;28;8823;-93
2023/03/31 03:54:16;;;;;;;;;2.75;1.50;;;;;;;;5063993;28;8771;-92
2023/03/31 03:56:42;;;;;;;;;2.00;1.00;;;;;;;;5062545;28;9577;-93
2023/03/31 03:59:07;;;;;;;;;2.00;2.00;;;;;;;;5063147;28;9881;-93
2023/03/31 04:01:36;;;;;;;;;2.25;2.25;;;;;;;;5061361;28;8819;-94
2023/03/31 04:04:01;;;;;;;;;2.75;2.00;;;;;;;;5045352;28;8746;-93
2023/03/31 04:06:26;;;;;;;;;3.50;3.25;;;;;;;;5043942;28;10751;-91
2023/03/31 04:08:52;;;;;;;;;4.00;3.00;;;;;;;;5042468;28;9996;-93
2023/03/31 04:11:17;;;;;;;;;3.50;2.25;;;;;;;;5042989;28;8833;-94
2023/03/31 04:13:43;;;;;;;;;4.50;3.00;;;;;;;;5042807;28;8805;-93
2023/03/31 04:16:08;;;;;;;;;4.75;2.25;;;;;;;;5044218;28;8763;-94
2023/03/31 04:18:35;;;;;;;;;1.75;1.75;;;;;;;;5042661;28;10099;-93
2023/03/31 04:21:04;;;;;;;;;5.25;2.75;;;;;;;;5044513;28;8762;-93
2023/03/31 04:23:30;;;;;;;;;4.75;2.00;;;;;;;;5068915;28;10739;-93
2023/03/31 04:25:56;;;;;;;;;6.50;3.25;;;;;;;;5087449;28;10864;-93
2023/03/31 04:28:21;;;;;;;;;7.00;2.25;;;;;;;;5087971;28;10493;-95
2023/03/31 04:30:47;;;;;;;;;2.50;2.25;;;;;;;;5087705;28;9321;-93
2023/03/31 04:33:14;;;;;;;;;3.00;1.25;;;;;;;;5087285;28;8836;-94
2023/03/31 04:35:51;;;;;;;;;2.75;1.50;;;;;;;;5085652;28;10354;-95
2023/03/31 04:38:17;;;;;;;;;4.50;2.50;;;;;;;;5086070;28;10312;-93
2023/03/31 04:40:43;;;;;;;;;5.25;2.00;;;;;;;;5085717;28;10473;-91
2023/03/31 04:43:09;;;;;;;;;5.00;2.00;;;;;;;;5085663;28;10502;-92
2023/03/31 04:45:34;;;;;;;;;10.50;2.50;;;;;;;;5087010;28;10268;-95
2023/03/31 04:47:59;;;;;;;;;3.00;2.00;;;;;;;;5085876;28;9955;-93
2023/03/31 04:50:25;;;;;;;;;3.50;2.50;;;;;;;;5070835;28;8845;-93
2023/03/31 04:52:50;;;;;;;;;3.00;1.75;;;;;;;;5065527;28;8949;-93
2023/03/31 04:55:15;;;;;;;;;4.25;3.00;;;;;;;;5066527;28;8942;-91
2023/03/31 04:57:41;;;;;;;;;4.50;3.00;;;;;;;;5066877;28;8826;-94
2023/03/31 05:00:06;;;;;;;;;6.50;2.50;;;;;;;;5067282;28;8880;-92
2023/03/31 05:02:32;;;;;;;;;3.50;1.00;;;;;;;;5086930;28;8803;-92
2023/03/31 05:04:57;;;;;;;;;4.25;3.25;;;;;;;;5082365;28;8784;-91
2023/03/31 05:07:25;;;;;;;;;5.50;2.75;;;;;;;;5067186;28;8829;-87
2023/03/31 05:09:52;;;;;;;;;2.75;2.00;;;;;;;;5067043;28;8734;-88
2023/03/31 05:12:17;;;;;;;;;4.00;4.00;;;;;;;;5084766;28;10646;-93
2023/03/31 05:14:43;;;;;;;;;5.00;4.00;;;;;;;;5084820;28;8800;-90
2023/03/31 05:17:10;;;;;;;;;2.00;2.00;;;;;;;;5083548;28;10973;-88
2023/03/31 05:19:35;;;;;;;;;4.75;4.25;;;;;;;;5084786;28;8748;-91
2023/03/31 05:22:01;;;;;;;;;4.75;1.75;;;;;;;;5085708;28;10658;-89
2023/03/31 05:24:28;;;;;;;;;9.75;3.00;;;;;;;;5107119;28;8803;-89
2023/03/31 05:26:56;;;;;;;;;6.00;3.00;;;;;;;;5088130;28;10006;-91
2023/03/31 05:29:22;;;;;;;;;6.50;3.00;;;;;;;;5088140;28;10631;-93
2023/03/31 05:31:48;;;;;;;;;4.50;3.25;;;;;;;;5082227;28;10449;-89
2023/03/31 05:34:14;;;;;;;;;2.25;2.00;;;;;;;;5085731;28;10567;-90
2023/03/31 05:36:46;;;;;;;;;6.00;3.00;;;;;;;;5096673;28;11378;-89
2023/03/31 05:39:13;;;;;;;;;7.00;3.25;;;;;;;;5084355;28;10732;-89
2023/03/31 05:41:38;;;;;;;;;8.75;2.00;;;;;;;;5085123;28;10886;-90
2023/03/31 05:44:03;;;;;;;;;4.50;3.50;;;;;;;;5066241;28;9558;-89
2023/03/31 05:46:29;;;;;;;;;7.00;4.25;;;;;;;;5084270;28;8770;-93
2023/03/31 05:48:57;;;;;;;;;9.00;3.25;;;;;;;;5098994;28;8791;-93
2023/03/31 05:51:38;;;;;;;;;5.00;2.00;;;;;;;;5083856;28;8877;-94
2023/03/31 05:54:03;;;;;;;;;7.00;2.75;;;;;;;;5077340;28;10583;-90
2023/03/31 05:56:29;;;;;;;;;9.75;3.75;;;;;;;;5087623;28;10959;-90
2023/03/31 05:58:54;;;;;;;;;2.00;2.00;;;;;;;;5104666;28;8779;-93
2023/03/31 06:01:21;;;;;;;;;15.75;4.75;;;;;;;;5086189;28;8803;-94
2023/03/31 06:03:46;;;;;;;;;4.00;2.50;;;;;;;;5068676;28;8741;-93
2023/03/31 06:06:12;;;;;;;;;5.50;2.00;;;;;;;;5072257;28;10667;-95
2023/03/31 06:08:37;;;;;;;;;7.25;3.50;;;;;;;;5068537;28;8938;-93
2023/03/31 06:11:07;;;;;;;;;4.75;1.75;;;;;;;;5086960;28;8809;-94
2023/03/31 06:13:32;;;;;;;;;5.75;3.00;;;;;;;;5068426;28;8756;-94
2023/03/31 06:15:59;;;;;;;;;4.00;2.50;;;;;;;;5074670;28;10721;-91
2023/03/31 06:18:27;;;;;;;;;8.00;2.75;;;;;;;;5089009;28;8783;-91
2023/03/31 06:20:52;;;;;;;;;5.75;3.00;;;;;;;;5088200;28;10526;-93
2023/03/31 06:23:18;;;;;;;;;6.25;4.00;;;;;;;;5106069;28;10504;-94
2023/03/31 06:25:43;;;;;;;;;8.75;2.00;;;;;;;;5106272;28;8846;-94
2023/03/31 06:28:13;;;;;;;;;3.75;1.00;;;;;;;;5105950;28;8766;-93
2023/03/31 06:30:47;;;;;;;;;6.75;3.00;;;;;;;;5104833;28;11089;-94
2023/03/31 06:33:13;;;;;;;;;4.25;3.25;;;;;;;;5072003;28;10497;-95
2023/03/31 06:35:40;;;;;;;;;5.00;2.75;;;;;;;;5085553;28;10679;-88
2023/03/31 06:38:06;;;;;;;;;2.75;2.75;;;;;;;;5100172;28;8797;-93
2023/03/31 06:40:32;;;;;;;;;11.25;4.75;;;;;;;;5084780;28;10555;-91
2023/03/31 06:43:03;;;;;;;;;5.00;2.00;;;;;;;;5075121;28;8777;-90
2023/03/31 06:45:29;;;;;;;;;15.50;4.00;;;;;;;;5065884;28;10613;-92
2023/03/31 06:47:54;;;;;;;;;9.50;3.75;;;;;;;;5067736;28;10740;-94
2023/03/31 06:50:19;;;;;;;;;2.00;1.00;;;;;;;;5067810;28;8796;-89
2023/03/31 06:52:44;;;;;;;;;2.50;1.00;;;;;;;;5067293;28;8789;-93
2023/03/31 06:55:11;;;;;;;;;4.50;3.25;;;;;;;;5071329;28;9830;-94
2023/03/31 06:57:37;;;;;;;;;3.00;1.75;;;;;;;;5067587;28;8722;-94
2023/03/31 07:00:03;;;;;;;;;4.25;2.50;;;;;;;;5067468;28;10627;-93
2023/03/31 07:02:28;;;;;;;;;7.00;2.00;;;;;;;;5085225;28;8730;-92
2023/03/31 07:04:53;;;;;;;;;1.75;1.75;;;;;;;;5068680;28;10663;-92
2023/03/31 07:07:19;;;;;;;;;1.75;1.00;;;;;;;;5105614;28;9147;-86
2023/03/31 07:09:44;;;;;;;;;3.00;2.00;;;;;;;;5098610;28;8811;-92
2023/03/31 07:12:09;;;;;;;;;5.50;3.50;;;;;;;;5076444;28;8820;-95
2023/03/31 07:14:35;;;;;;;;;6.00;3.25;;;;;;;;5094878;28;8810;-92
2023/03/31 07:17:00;;;;;;;;;2.25;2.00;;;;;;;;5080376;28;8799;-94
2023/03/31 07:19:26;;;;;;;;;4.00;2.00;;;;;;;;5087592;28;8779;-91
2023/03/31 07:21:52;;;;;;;;;3.75;2.25;;;;;;;;5069152;28;8829;-94
2023/03/31 07:24:17;;;;;;;;;6.50;2.00;;;;;;;;5061754;28;9793;-92
2023/03/31 07:26:42;;;;;;;;;2.00;2.00;;;;;;;;5062025;28;11560;-95
2023/03/31 07:29:07;;;;;;;;;8.00;2.00;;;;;;;;5064942;28;8787;-91
2023/03/31 07:31:33;;;;;;;;;2.25;1.50;;;;;;;;5064009;28;8898;-92
2023/03/31 07:33:59;;;;;;;;;2.50;1.00;;;;;;;;5058138;28;8948;-91
2023/03/31 07:36:25;;;;;;;;;1.75;1.00;;;;;;;;5055744;28;8739;-94
2023/03/31 07:38:50;;;;;;;;;3.00;2.00;;;;;;;;5054033;28;10428;-91
2023/03/31 07:41:17;;;;;;;;;2.50;1.50;;;;;;;;5052270;28;8810;-93
2023/03/31 07:43:42;;;;;;;;;2.00;2.00;;;;;;;;5048186;28;8805;-93
2023/03/31 07:46:17;;;;;;;;;1.00;1.00;;;;;;;;5047666;28;10439;-94
2023/03/31 07:48:42;;;;;;;;;3.00;1.50;;;;;;;;5054033;28;8798;-94
2023/03/31 07:51:08;;;;;;;;;3.75;0.75;;;;;;;;5047606;28;10360;-91
2023/03/31 07:53:33;;;;;;;;;3.00;1.00;;;;;;;;5061444;28;9958;-94
2023/03/31 07:55:59;;;;;;;;;7.25;2.00;;;;;;;;5064120;28;8823;-94
2023/03/31 07:58:24;;;;;;;;;1.75;1.75;;;;;;;;5064315;28;8811;-94
2023/03/31 08:00:49;;;;;;;;;1.00;1.00;;;;;;;;5045295;28;8819;-92
2023/03/31 08:03:15;;;;;;;;;3.00;1.00;;;;;;;;5043937;28;8797;-94
2023/03/31 08:05:40;;;;;;;;;1.75;1.00;;;;;;;;5044176;28;8813;-94
2023/03/31 08:08:06;;;;;;;;;3.75;1.50;;;;;;;;5044981;28;8813;-93
2023/03/31 08:10:31;;;;;;;;;1.75;1.75;;;;;;;;5043547;28;9845;-85
2023/03/31 08:12:56;;;;;;;;;5.25;2.00;;;;;;;;5043365;28;10008;-93
2023/03/31 08:15:21;;;;;;;;;3.50;0.00;;;;;;;;5044219;28;8789;-93
2023/03/31 08:17:47;;;;;;;;;3.75;2.00;;;;;;;;5044866;28;8801;-94
2023/03/31 08:20:12;;;;;;;;;1.00;1.00;;;;;;;;5048026;28;8823;-93
2023/03/31 08:22:38;;;;;;;;;9.50;3.50;;;;;;;;5064303;28;10027;-92
2023/03/31 08:25:04;;;;;;;;;4.75;2.00;;;;;;;;5048547;28;9728;-94
2023/03/31 08:27:37;;;;;;;;;3.25;1.00;;;;;;;;5043676;28;11543;-93
2023/03/31 08:30:03;;;;;;;;;2.75;2.00;;;;;;;;5045270;28;8766;-93
2023/03/31 08:32:28;;;;;;;;;3.50;3.25;;;;;;;;5043753;28;10254;-92
2023/03/31 08:34:54;;;;;;;;;3.00;1.25;;;;;;;;5043266;28;10082;-94
2023/03/31 08:37:19;;;;;;;;;3.25;1.00;;;;;;;;5053788;28;8787;-94
2023/03/31 08:39:44;;;;;;;;;1.00;1.00;;;;;;;;5063271;28;8779;-93
2023/03/31 08:42:14;;;;;;;;;1.00;0.50;;;;;;;;5062789;28;9949;-93
2023/03/31 08:44:43;;;;;;;;;3.00;2.00;;;;;;;;5064860;28;8788;-91
2023/03/31 08:47:14;;;;;;;;;4.00;1.50;;;;;;;;5060650;28;10202;-91
2023/03/31 08:49:43;;;;;;;;;2.75;1.00;;;;;;;;5078968;28;10122;-89
2023/03/31 08:52:11;;;;;;;;;3.25;1.00;;;;;;;;5063708;28;10399;-93
2023/03/31 08:54:52;;;;;;;;;4.75;1.50;;;;;;;;5061526;28;10193;-92
2023/03/31 08:57:26;;;;;;;;;5.00;2.00;;;;;;;;5062159;28;10124;-91
2023/03/31 09:00:05;;;;;;;;;4.25;2.25;;;;;;;;5062822;28;10349;-93
2023/03/31 09:02:40;;;;;;;;;2.00;1.50;;;;;;;;5062101;28;10382;-92
2023/03/31 09:05:30;;;;;;;;;4.50;1.00;;;;;;;;5061574;28;10065;-93
2023/03/31 09:08:01;;;;;;;;;2.75;1.00;;;;;;;;5064628;28;10242;-91
2023/03/31 09:10:28;;;;;;;;;7.50;1.75;;;;;;;;5046751;28;9762;-93
2023/03/31 09:13:10;;;;;;;;;3.00;2.00;;;;;;;;5050110;28;10423;-93
2023/03/31 09:15:35;;;;;;;;;7.50;3.75;;;;;;;;5046716;28;9975;-94
2023/03/31 09:18:20;;;;;;;;;5.00;1.00;;;;;;;;5048236;28;10346;-92
2023/03/31 09:20:50;;;;;;;;;6.00;2.00;;;;;;;;5058823;28;8759;-91
2023/03/31 09:23:25;;;;;;;;;1.00;1.00;;;;;;;;5089452;28;10191;-89
2023/03/31 09:25:51;;;;;;;;;1.00;1.00;;;;;;;;5109285;28;10205;-93
2023/03/31 09:28:21;;;;;;;;;8.25;0.50;;;;;;;;5108334;28;10034;-90
2023/03/31 09:30:49;;;;;;;;;4.25;2.25;;;;;;;;5104017;28;8759;-91
2023/03/31 09:33:18;;;;;;;;;1.00;1.00;;;;;;;;5109789;28;10107;-88
2023/03/31 09:35:44;;;;;;;;;5.25;2.25;;;;;;;;5105851;28;10050;-90
2023/03/31 09:38:13;;;;;;;;;2.00;1.00;;;;;;;;5092381;28;10328;-91
2023/03/31 09:40:38;;;;;;;;;2.00;0.00;;;;;;;;5089112;28;8874;-93
2023/03/31 09:43:10;;;;;;;;;2.75;0.50;;;;;;;;5072279;28;10575;-91
2023/03/31 09:45:35;;;;;;;;;3.00;1.75;;;;;;;;5090033;28;9679;-93
2023/03/31 09:48:10;;;;;;;;;2.25;1.00;;;;;;;;5068690;28;10400;-93
2023/03/31 09:50:40;;;;;;;;;2.00;1.00;;;;;;;;5086531;28;8741;-94
2023/03/31 09:53:10;;;;;;;;;1.75;1.00;;;;;;;;5091683;28;10544;-93
2023/03/31 09:55:52;;;;;;;;;1.00;0.00;;;;;;;;5089004;28;10361;-92
2023/03/31 09:58:19;;;;;;;;;0.75;0.75;;;;;;;;5089784;28;10272;-92
2023/03/31 10:01:02;;;;;;;;;6.00;1.75;;;;;;;;5107333;28;10455;-91
2023/03/31 10:03:29;;;;;;;;;2.75;2.00;;;;;;;;5107902;28;10460;-90
2023/03/31 10:05:55;;;;;;;;;1.00;1.00;;;;;;;;5106602;28;10399;-90
2023/03/31 10:08:30;;;;;;;;;5.25;3.00;;;;;;;;5108066;28;10291;-93
2023/03/31 10:10:57;;;;;;;;;1.00;1.00;;;;;;;;5091227;28;10361;-93
2023/03/31 10:13:24;;;;;;;;;1.00;1.00;;;;;;;;5089958;28;10386;-91
2023/03/31 10:15:54;;;;;;;;;2.50;0.75;;;;;;;;5106892;28;10423;-93
2023/03/31 10:18:20;;;;;;;;;2.50;0.50;;;;;;;;5081027;28;10449;-91
2023/03/31 10:20:58;;;;;;;;;0.00;0.00;;;;;;;;5095070;28;10322;-88
2023/03/31 10:23:33;;;;;;;;;3.25;0.50;;;;;;;;5071750;28;10330;-85
2023/03/31 10:26:04;;;;;;;;;1.00;1.00;;;;;;;;5074100;28;10341;-88
2023/03/31 10:28:32;;;;;;;;;0.00;0.00;;;;;;;;5073442;28;9954;-86
2023/03/31 10:31:02;;;;;;;;;1.50;0.00;;;;;;;;5068973;28;11076;-89
2023/03/31 10:33:33;;;;;;;;;0.25;0.00;;;;;;;;5062642;28;10345;-89
2023/03/31 10:36:06;;;;;;;;;0.50;0.00;;;;;;;;5063354;28;10042;-88
2023/03/31 10:38:39;;;;;;;;;0.00;0.00;;;;;;;;5066461;28;10204;-91
2023/03/31 10:41:05;;;;;;;;;1.00;1.00;;;;;;;;5064829;28;10133;-91
2023/03/31 10:43:40;;;;;;;;;2.00;1.00;;;;;;;;5063092;28;10018;-88
2023/03/31 10:46:06;;;;;;;;;2.00;0.00;;;;;;;;5067873;28;8811;-92
2023/03/31 10:48:33;;;;;;;;;0.00;0.00;;;;;;;;5071931;28;9895;-92
2023/03/31 10:51:14;;;;;;;;;2.50;0.25;;;;;;;;5072234;28;8831;-93
2023/03/31 10:53:41;;;;;;;;;1.25;0.00;;;;;;;;5065326;28;10205;-93
2023/03/31 10:56:25;;;;;;;;;1.25;1.00;;;;;;;;5070286;28;10244;-92
2023/03/31 10:58:50;;;;;;;;;6.25;1.00;;;;;;;;5064420;28;10130;-93
2023/03/31 11:01:21;;;;;;;;;2.25;1.00;;;;;;;;5063773;28;10071;-93
2023/03/31 11:04:05;;;;;;;;;1.00;1.00;;;;;;;;5062604;28;10002;-93
2023/03/31 11:06:33;;;;;;;;;1.50;0.00;;;;;;;;5082584;28;10195;-91
2023/03/31 11:08:59;;;;;;;;;5.00;1.00;;;;;;;;5065421;28;10141;-88
2023/03/31 11:11:44;;;;;;;;;1.00;1.00;;;;;;;;5081299;28;9915;-93
2023/03/31 11:14:25;;;;;;;;;1.00;1.00;;;;;;;;5066903;28;10069;-87
2023/03/31 11:17:09;;;;;;;;;2.25;0.00;;;;;;;;5083338;28;9869;-88
2023/03/31 11:20:01;;;;;;;;;2.00;0.50;;;;;;;;5082615;28;9972;-89
2023/03/31 11:22:26;;;;;;;;;1.75;0.00;;;;;;;;5082616;28;9965;-88
2023/03/31 11:24:51;;;;;;;;;0.75;0.75;;;;;;;;5079578;28;10194;-93
2023/03/31 11:27:28;;;;;;;;;0.00;0.00;;;;;;;;5084873;28;8819;-91
2023/03/31 11:30:08;;;;;;;;;1.00;1.00;;;;;;;;5082846;28;8787;-91
2023/03/31 11:32:47;;;;;;;;;0.25;0.25;;;;;;;;5064841;28;9898;-89
2023/03/31 11:35:15;;;;;;;;;2.50;0.00;;;;;;;;5083367;28;10129;-91
2023/03/31 11:37:48;;;;;;;;;0.00;0.00;;;;;;;;5065378;28;9925;-91
2023/03/31 11:40:19;;;;;;;;;3.50;0.50;;;;;;;;5065516;28;10805;-91
2023/03/31 11:42:48;;;;;;;;;0.00;0.00;;;;;;;;5103447;28;9741;-90
2023/03/31 11:45:22;;;;;;;;;2.50;0.00;;;;;;;;5086589;28;10218;-94
2023/03/31 11:47:50;;;;;;;;;0.00;0.00;;;;;;;;5102987;28;9814;-93
2023/03/31 11:50:18;;;;;;;;;0.50;0.50;;;;;;;;5085270;28;9687;-94
2023/03/31 11:52:49;;;;;;;;;1.00;0.25;;;;;;;;5084675;28;9717;-93
2023/03/31 11:55:20;;;;;;;;;2.00;2.00;;;;;;;;5083689;28;10309;-92
2023/03/31 11:58:03;;;;;;;;;7.25;1.00;;;;;;;;5071028;28;9654;-91
2023/03/31 12:00:46;;;;;;;;;0.00;0.00;;;;;;;;5064770;28;9767;-93
2023/03/31 12:03:37;;;;;;;;;0.00;0.00;;;;;;;;5085886;28;9663;-93
2023/03/31 12:06:06;;;;;;;;;0.00;0.00;;;;;;;;5075286;28;10045;-91
2023/03/31 12:08:38;;;;;;;;;0.50;0.00;;;;;;;;5094094;28;9226;-91
2023/03/31 12:11:10;;;;;;;;;1.00;0.00;;;;;;;;5081575;28;9602;-93
2023/03/31 12:13:36;;;;;;;;;0.75;0.00;;;;;;;;5084778;28;9623;-93
2023/03/31 12:16:11;;;;;;;;;2.00;0.00;;;;;;;;5103245;28;9704;-93
2023/03/31 12:19:01;;;;;;;;;0.00;0.00;;;;;;;;5102774;28;9551;-92
2023/03/31 12:21:28;;;;;;;;;0.00;0.00;;;;;;;;5093035;28;9653;-91
2023/03/31 12:23:53;;;;;;;;;1.00;0.00;;;;;;;;5083867;28;9802;-93
2023/03/31 12:26:30;;;;;;;;;1.50;1.00;;;;;;;;5084134;28;10389;-93
2023/03/31 12:28:58;;;;;;;;;1.75;0.00;;;;;;;;5080613;28;8734;-90
2023/03/31 12:31:25;;;;;;;;;0.00;0.00;;;;;;;;5064264;28;9787;-92
2023/03/31 12:33:57;;;;;;;;;1.00;0.00;;;;;;;;5082632;28;9693;-91
2023/03/31 12:36:32;;;;;;;;;1.00;0.00;;;;;;;;5065171;28;10986;-91
2023/03/31 12:39:07;;;;;;;;;0.75;0.50;;;;;;;;5082185;28;9493;-92
2023/03/31 12:41:36;;;;;;;;;2.25;1.00;;;;;;;;5100957;28;9783;-89
2023/03/31 12:44:02;;;;;;;;;0.50;0.00;;;;;;;;5088499;28;9926;-91
2023/03/31 12:46:29;;;;;;;;;0.75;0.00;;;;;;;;5098018;28;10030;-90
2023/03/31 12:49:14;;;;;;;;;1.75;0.00;;;;;;;;5076149;28;9660;-92
2023/03/31 12:51:55;;;;;;;;;0.00;0.00;;;;;;;;5080275;28;9810;-92
2023/03/31 12:54:40;;;;;;;;;2.00;0.00;;;;;;;;5095986;28;9643;-92
2023/03/31 12:57:08;;;;;;;;;2.25;1.00;;;;;;;;5096081;28;9926;-90
2023/03/31 12:59:34;;;;;;;;;0.75;0.00;;;;;;;;5077793;28;10727;-90
2023/03/31 13:02:16;;;;;;;;;0.00;0.00;;;;;;;;5075363;28;9667;-90
2023/03/31 13:04:43;;;;;;;;;0.00;0.00;;;;;;;;5078421;28;11425;-92
2023/03/31 13:07:21;;;;;;;;;1.75;0.00;;;;;;;;5078274;28;10111;-89
2023/03/31 13:09:59;;;;;;;;;4.00;0.00;;;;;;;;5078087;28;9736;-92
2023/03/31 13:12:29;;;;;;;;;0.00;0.00;;;;;;;;5077457;28;9777;-90
2023/03/31 13:15:01;;;;;;;;;0.00;0.00;;;;;;;;5094617;28;9462;-89
2023/03/31 13:17:30;;;;;;;;;0.00;0.00;;;;;;;;5097104;28;9876;-89
2023/03/31 13:20:15;;;;;;;;;1.25;0.25;;;;;;;;5076797;28;9585;-90
2023/03/31 13:22:43;;;;;;;;;0.00;0.00;;;;;;;;5082986;28;9665;-88
2023/03/31 13:25:27;;;;;;;;;0.00;0.00;;;;;;;;5079388;28;9364;-89
2023/03/31 13:27:52;;;;;;;;;0.00;0.00;;;;;;;;5100894;28;10654;-91
2023/03/31 13:30:37;;;;;;;;;0.00;0.00;;;;;;;;5080714;28;9435;-90
2023/03/31 13:33:07;;;;;;;;;0.00;0.00;;;;;;;;5092699;28;8762;-86
2023/03/31 13:35:42;;;;;;;;;0.50;0.25;;;;;;;;5092049;28;9464;-89
2023/03/31 13:38:23;;;;;;;;;3.00;1.00;;;;;;;;5095981;28;9593;-86
2023/03/31 13:41:04;;;;;;;;;0.25;0.25;;;;;;;;5094305;28;9301;-86
2023/03/31 13:43:46;;;;;;;;;0.75;0.00;;;;;;;;5086714;28;10730;-87
2023/03/31 13:46:15;;;;;;;;;7.00;0.00;;;;;;;;5069566;28;9873;-86
2023/03/31 13:48:59;;;;;;;;;0.00;0.00;;;;;;;;5067317;28;10174;-88
2023/03/31 13:51:26;;;;;;;;;2.50;1.00;;;;;;;;5067084;28;10508;-86
2023/03/31 13:54:24;;;;;;;;;1.00;0.00;;;;;;;;5066136;28;10259;-84
2023/03/31 13:57:05;;;;;;;;;0.00;0.00;;;;;;;;5069981;28;10259;-85
2023/03/31 13:59:54;;;;;;;;;2.00;0.00;;;;;;;;5083943;28;10392;-86
2023/03/31 14:02:37;;;;;;;;;1.50;0.00;;;;;;;;5095991;28;10436;-89
2023/03/31 14:05:05;;;;;;;;;0.00;0.00;;;;;;;;5086346;28;10536;-89
2023/03/31 14:07:56;;;;;;;;;0.25;0.00;;;;;;;;5069924;28;10478;-86
2023/03/31 14:10:29;;;;;;;;;0.00;0.00;;;;;;;;5065572;28;10592;-87
2023/03/31 14:13:08;;;;;;;;;2.00;0.00;;;;;;;;5103786;28;10056;-88
2023/03/31 14:15:41;;;;;;;;;0.00;0.00;;;;;;;;5086001;28;10194;-88
2023/03/31 14:18:16;;;;;;;;;0.00;0.00;;;;;;;;5082192;28;9903;-88
2023/03/31 14:20:52;;;;;;;;;0.00;0.00;;;;;;;;5083846;28;10065;-88
2023/03/31 14:23:19;;;;;;;;;0.00;0.00;;;;;;;;5092364;28;9882;-87
2023/03/31 14:25:51;;;;;;;;;0.25;0.00;;;;;;;;5085762;28;9486;-88
2023/03/31 14:28:45;;;;;;;;;0.67;0.00;;;;;;;;5070631;28;8957;-88
2023/03/31 14:31:24;;;;;;;;;0.00;0.00;;;;;;;;5064869;28;10055;-88
2023/03/31 14:33:50;;;;;;;;;1.67;0.33;;;;;;;;5100471;28;9319;-88
2023/03/31 14:36:29;;;;;;;;;0.33;0.33;;;;;;;;5085461;28;9276;-89
2023/03/31 14:39:00;;;;;;;;;0.00;0.00;;;;;;;;5073515;28;8824;-86
2023/03/31 14:41:28;;;;;;;;;0.00;0.00;;;;;;;;5065216;28;10370;-90
2023/03/31 14:43:58;;;;;;;;;0.00;0.00;;;;;;;;5074895;28;9245;-88
2023/03/31 14:46:34;;;;;;;;;1.67;1.00;;;;;;;;5086092;28;9298;-86
2023/03/31 14:49:22;;;;;;;;;0.33;0.33;;;;;;;;5085651;28;9271;-91
2023/03/31 14:51:51;;;;;;;;;1.00;0.00;;;;;;;;5065025;28;10033;-90
2023/03/31 14:54:23;;;;;;;;;0.00;0.00;;;;;;;;5094015;28;9423;-85
2023/03/31 14:57:03;;;;;;;;;2.75;0.00;;;;;;;;5075132;28;9510;-91
2023/03/31 14:59:39;;;;;;;;;1.00;0.00;;;;;;;;5097511;28;9567;-90
2023/03/31 15:02:19;;;;;;;;;1.00;1.00;;;;;;;;5095222;28;9637;-93
2023/03/31 15:04:55;;;;;;;;;1.00;0.00;;;;;;;;5076249;28;9571;-91
2023/03/31 15:07:26;;;;;;;;;0.00;0.00;;;;;;;;5078661;28;9447;-90